Time;durP1;ratioP1;P1;durP2;ratioP2;P2;SDS_P1;SDS_P2;PMS_P1;PMS_P2;Temp;Humidity;BMP_temperature;BMP_pressure;BME280_temperature;BME280_humidity;BME280_pressure;Samples;Min_cycle;Max_cycle;Signal;HPM_P1;HPM_P2
2023/04/01 00:01:37;;;;;;;6.68;2.50;;;;;;;;;;4975041;28;20065;-65
2023/04/01 00:04:06;;;;;;;4.88;2.35;;;;;;;;;;4943160;28;20070;-65
2023/04/01 00:06:36;;;;;;;7.45;2.20;;;;;;;;;;4991461;28;20494;-64
2023/04/01 00:09:06;;;;;;;9.15;2.33;;;;;;;;;;4991592;28;20074;-64
2023/04/01 00:11:36;;;;;;;8.70;2.42;;;;;;;;;;4991321;28;20598;-64
2023/04/01 00:14:07;;;;;;;11.23;2.53;;;;;;;;;;4959928;28;20414;-63
2023/04/01 00:16:37;;;;;;;5.82;1.85;;;;;;;;;;4974994;28;20061;-64
2023/04/01 00:19:07;;;;;;;8.32;2.38;;;;;;;;;;4991482;28;20498;-65
2023/04/01 00:21:37;;;;;;;6.97;2.03;;;;;;;;;;4991211;28;20533;-66
2023/04/01 00:24:07;;;;;;;6.03;2.00;;;;;;;;;;4991284;28;20119;-65
2023/04/01 00:26:37;;;;;;;4.43;2.05;;;;;;;;;;4943473;28;20057;-65
2023/04/01 00:29:07;;;;;;;8.50;1.95;;;;;;;;;;4960337;28;20054;-65
2023/04/01 00:31:37;;;;;;;7.13;2.35;;;;;;;;;;4971658;28;20067;-64
2023/04/01 00:34:08;;;;;;;11.48;2.60;;;;;;;;;;4852398;29;20055;-65
2023/04/01 00:36:38;;;;;;;5.47;2.53;;;;;;;;;;4867063;29;20618;-64
2023/04/01 00:39:08;;;;;;;8.68;3.47;;;;;;;;;;4906765;29;20067;-65
2023/04/01 00:41:38;;;;;;;6.13;2.25;;;;;;;;;;4879345;29;20052;-65
2023/04/01 00:44:26;;;;;;;4.75;2.05;;;;;;;;;;4897802;29;20052;-63
2023/04/01 00:46:57;;;;;;;4.40;2.00;;;;;;;;;;4894339;29;20056;-64
2023/04/01 00:49:43;;;;;;;3.72;1.70;;;;;;;;;;4895148;29;20060;-64
2023/04/01 00:52:19;;;;;;;11.18;1.77;;;;;;;;;;4894022;29;20425;-64
2023/04/01 00:54:54;;;;;;;4.93;2.85;;;;;;;;;;4826693;29;20472;-63
2023/04/01 00:57:37;;;;;;;4.55;1.90;;;;;;;;;;4857250;29;20065;-64
2023/04/01 01:00:12;;;;;;;4.05;1.55;;;;;;;;;;4813566;29;20055;-64
2023/04/01 01:02:46;;;;;;;4.47;1.50;;;;;;;;;;4784412;29;20074;-64
2023/04/01 01:05:22;;;;;;;5.78;1.85;;;;;;;;;;4754518;30;20393;-64
2023/04/01 01:08:06;;;;;;;6.72;2.15;;;;;;;;;;4804919;29;20190;-64
2023/04/01 01:10:39;;;;;;;8.65;2.42;;;;;;;;;;4805215;29;20054;-64
2023/04/01 01:13:28;;;;;;;9.77;2.70;;;;;;;;;;4784317;29;20551;-64
2023/04/01 01:16:06;;;;;;;6.63;3.05;;;;;;;;;;4769178;29;20060;-63
2023/04/01 01:18:44;;;;;;;9.55;2.70;;;;;;;;;;4784012;29;20101;-64
2023/04/01 01:21:25;;;;;;;8.35;3.15;;;;;;;;;;4784143;29;20062;-64
2023/04/01 01:24:19;;;;;;;6.57;2.78;;;;;;;;;;4743741;29;20070;-63
2023/04/01 01:27:09;;;;;;;7.13;2.63;;;;;;;;;;4772218;29;20483;-65
2023/04/01 01:29:52;;;;;;;5.38;2.75;;;;;;;;;;4819662;29;20509;-64
2023/04/01 01:32:44;;;;;;;9.02;3.00;;;;;;;;;;4836629;29;20050;-63
2023/04/01 01:35:21;;;;;;;7.00;3.13;;;;;;;;;;4834791;29;20057;-63
2023/04/01 01:38:04;;;;;;;8.93;3.40;;;;;;;;;;4857297;29;20469;-63
2023/04/01 01:40:36;;;;;;;8.13;3.97;;;;;;;;;;4893861;29;20867;-65
2023/04/01 01:43:10;;;;;;;11.80;3.58;;;;;;;;;;4894063;29;20528;-65
2023/04/01 01:45:48;;;;;;;6.75;3.40;;;;;;;;;;4893959;29;20061;-65
2023/04/01 01:48:19;;;;;;;8.90;3.20;;;;;;;;;;4875227;29;20064;-65
2023/04/01 01:50:50;;;;;;;7.15;2.88;;;;;;;;;;4884332;29;20524;-65
2023/04/01 01:53:21;;;;;;;6.78;2.50;;;;;;;;;;4908178;29;20051;-65
2023/04/01 01:55:51;;;;;;;9.43;2.85;;;;;;;;;;4900137;29;20055;-65
2023/04/01 01:58:24;;;;;;;9.18;3.42;;;;;;;;;;4912525;29;20068;-66
2023/04/01 02:01:02;;;;;;;9.05;3.13;;;;;;;;;;4931401;29;20055;-65
2023/04/01 02:03:36;;;;;;;6.78;3.10;;;;;;;;;;4900702;29;20063;-65
2023/04/01 02:06:10;;;;;;;7.55;3.42;;;;;;;;;;4869685;29;20060;-65
2023/04/01 02:08:45;;;;;;;10.90;3.20;;;;;;;;;;4916695;29;20048;-65
2023/04/01 02:11:23;;;;;;;8.50;3.22;;;;;;;;;;4897255;29;20048;-65
2023/04/01 02:14:06;;;;;;;10.00;2.95;;;;;;;;;;4899322;29;20052;-65
2023/04/01 02:16:59;;;;;;;6.60;2.90;;;;;;;;;;4877638;29;20064;-65
2023/04/01 02:19:48;;;;;;;7.68;2.28;;;;;;;;;;4828926;29;20045;-65
2023/04/01 02:22:26;;;;;;;8.20;2.97;;;;;;;;;;4841448;29;20070;-65
2023/04/01 02:25:01;;;;;;;8.95;2.45;;;;;;;;;;4810854;29;20089;-65
2023/04/01 02:27:31;;;;;;;11.80;2.65;;;;;;;;;;4796108;29;20058;-64
2023/04/01 02:30:01;;;;;;;5.63;2.83;;;;;;;;;;4794431;29;20048;-65
2023/04/01 02:32:33;;;;;;;8.20;3.20;;;;;;;;;;4798956;29;20066;-65
2023/04/01 02:35:06;;;;;;;10.00;2.80;;;;;;;;;;4804923;29;20177;-65
2023/04/01 02:37:37;;;;;;;12.52;3.38;;;;;;;;;;4771875;29;20055;-65
2023/04/01 02:40:10;;;;;;;7.05;3.13;;;;;;;;;;4787973;29;20459;-66
2023/04/01 02:42:43;;;;;;;7.45;3.38;;;;;;;;;;4794295;29;20402;-65
2023/04/01 02:45:14;;;;;;;7.47;2.65;;;;;;;;;;4787075;30;20059;-65
2023/04/01 02:47:45;;;;;;;14.15;3.08;;;;;;;;;;4787059;30;20063;-65
2023/04/01 02:50:15;;;;;;;9.30;2.92;;;;;;;;;;4804747;29;20055;-66
2023/04/01 02:52:44;;;;;;;7.30;2.70;;;;;;;;;;4774864;29;20072;-65
2023/04/01 02:55:15;;;;;;;7.10;2.95;;;;;;;;;;4852745;29;20399;-65
2023/04/01 02:57:45;;;;;;;4.38;2.10;;;;;;;;;;4867802;29;20053;-65
2023/04/01 03:00:18;;;;;;;6.70;2.38;;;;;;;;;;4866076;29;20049;-64
2023/04/01 03:02:48;;;;;;;6.22;2.45;;;;;;;;;;4859216;29;20057;-65
2023/04/01 03:05:18;;;;;;;6.93;2.15;;;;;;;;;;4859126;29;20076;-65
2023/04/01 03:07:48;;;;;;;7.60;2.58;;;;;;;;;;4870872;29;20067;-65
2023/04/01 03:10:18;;;;;;;4.82;2.00;;;;;;;;;;4874278;29;20647;-65
2023/04/01 03:12:48;;;;;;;5.38;2.45;;;;;;;;;;4877366;29;20465;-66
2023/04/01 03:15:19;;;;;;;7.28;2.42;;;;;;;;;;4894876;29;20064;-65
2023/04/01 03:17:49;;;;;;;5.78;2.00;;;;;;;;;;4896406;29;20068;-66
2023/04/01 03:20:20;;;;;;;6.15;2.40;;;;;;;;;;4895256;29;20064;-65
2023/04/01 03:22:50;;;;;;;7.07;2.17;;;;;;;;;;4858824;29;20453;-65
2023/04/01 03:25:20;;;;;;;6.85;2.30;;;;;;;;;;4861159;29;20514;-65
2023/04/01 03:27:50;;;;;;;6.75;1.98;;;;;;;;;;4880442;29;20060;-65
2023/04/01 03:30:20;;;;;;;7.13;2.13;;;;;;;;;;4877074;29;20057;-65
2023/04/01 03:32:53;;;;;;;4.35;2.70;;;;;;;;;;4876060;29;20440;-65
2023/04/01 03:35:24;;;;;;;5.50;2.00;;;;;;;;;;4853462;29;20057;-65
2023/04/01 03:37:54;;;;;;;7.43;2.30;;;;;;;;;;4858600;29;20068;-66
2023/04/01 03:40:26;;;;;;;10.88;1.90;;;;;;;;;;4876986;29;20078;-65
2023/04/01 03:42:56;;;;;;;5.72;2.00;;;;;;;;;;4860552;29;20061;-65
2023/04/01 03:45:26;;;;;;;7.07;2.10;;;;;;;;;;4846061;29;20064;-66
2023/04/01 03:47:55;;;;;;;10.80;2.05;;;;;;;;;;4818889;29;20049;-65
2023/04/01 03:50:26;;;;;;;6.15;1.70;;;;;;;;;;4810200;29;20051;-65
2023/04/01 03:52:57;;;;;;;3.97;1.90;;;;;;;;;;4839247;29;20074;-65
2023/04/01 03:55:27;;;;;;;6.97;1.80;;;;;;;;;;4867609;29;20651;-64
2023/04/01 03:57:57;;;;;;;4.03;2.03;;;;;;;;;;4876943;29;20098;-65
2023/04/01 04:00:27;;;;;;;5.18;1.90;;;;;;;;;;4822451;29;20061;-65
2023/04/01 04:02:59;;;;;;;4.93;2.13;;;;;;;;;;4821205;29;20054;-65
2023/04/01 04:05:33;;;;;;;3.67;2.17;;;;;;;;;;4850254;29;20054;-65
2023/04/01 04:08:04;;;;;;;4.88;1.75;;;;;;;;;;4803513;29;20074;-65
2023/04/01 04:10:35;;;;;;;5.35;2.10;;;;;;;;;;4777257;29;20063;-66
2023/04/01 04:13:06;;;;;;;8.00;1.80;;;;;;;;;;4794459;29;20059;-65
2023/04/01 04:15:44;;;;;;;5.53;2.47;;;;;;;;;;4792547;29;20559;-65
2023/04/01 04:18:15;;;;;;;7.03;2.03;;;;;;;;;;4785098;29;20409;-65
2023/04/01 04:20:50;;;;;;;4.63;2.13;;;;;;;;;;4755151;29;20062;-66
2023/04/01 04:23:21;;;;;;;4.47;2.58;;;;;;;;;;4788881;29;20414;-65
2023/04/01 04:25:58;;;;;;;6.28;2.15;;;;;;;;;;4766703;30;20059;-65
2023/04/01 04:28:29;;;;;;;5.30;1.73;;;;;;;;;;4796761;29;20650;-65
2023/04/01 04:31:05;;;;;;;6.55;2.22;;;;;;;;;;4835306;29;20057;-65
2023/04/01 04:33:36;;;;;;;10.63;2.38;;;;;;;;;;4805780;29;20530;-65
2023/04/01 04:36:06;;;;;;;9.05;2.42;;;;;;;;;;4844294;29;20057;-65
2023/04/01 04:38:36;;;;;;;3.80;1.85;;;;;;;;;;4857163;29;20060;-65
2023/04/01 04:41:14;;;;;;;10.05;2.85;;;;;;;;;;4862914;29;20075;-65
2023/04/01 04:43:55;;;;;;;8.02;2.13;;;;;;;;;;4842409;29;20057;-65
2023/04/01 04:46:25;;;;;;;4.97;2.20;;;;;;;;;;4834835;29;20053;-65
2023/04/01 04:49:03;;;;;;;;;;;;;;;;;;4851917;29;20224;-65
2023/04/01 04:51:36;;;;;;;5.60;2.00;;;;;;;;;;4894069;29;19923;-66
2023/04/01 04:54:06;;;;;;;3.72;1.95;;;;;;;;;;4880066;29;20057;-65
2023/04/01 04:56:52;;;;;;;5.53;2.78;;;;;;;;;;4881386;29;20077;-65
2023/04/01 04:59:24;;;;;;;7.40;2.00;;;;;;;;;;4931842;29;20044;-65
2023/04/01 05:02:04;;;;;;;5.28;2.35;;;;;;;;;;4905026;29;20165;-65
2023/04/01 05:04:37;;;;;;;4.65;2.15;;;;;;;;;;4909650;29;20063;-65
2023/04/01 05:07:10;;;;;;;7.78;2.05;;;;;;;;;;4843943;29;20049;-65
2023/04/01 05:09:41;;;;;;;5.28;1.65;;;;;;;;;;4856890;29;20079;-65
2023/04/01 05:12:12;;;;;;;4.85;1.98;;;;;;;;;;4804391;29;20063;-65
2023/04/01 05:15:15;;;;;;;8.35;2.22;;;;;;;;;;4803633;29;20062;-65
2023/04/01 05:17:45;;;;;;;5.25;1.88;;;;;;;;;;4838425;29;20071;-65
2023/04/01 05:20:16;;;;;;;6.50;2.17;;;;;;;;;;4820169;29;20054;-62
2023/04/01 05:22:46;;;;;;;4.93;2.30;;;;;;;;;;4793154;29;20085;-65
2023/04/01 05:25:16;;;;;;;5.68;2.40;;;;;;;;;;4816123;29;20062;-65
2023/04/01 05:27:45;;;;;;;5.97;2.60;;;;;;;;;;4772344;29;20055;-66
2023/04/01 05:30:15;;;;;;;7.78;2.15;;;;;;;;;;4783750;30;20058;-66
2023/04/01 05:33:03;;;;;;;6.57;2.03;;;;;;;;;;4791431;29;20058;-65
2023/04/01 05:35:33;;;;;;;4.80;1.88;;;;;;;;;;4817317;29;20524;-65
2023/04/01 05:38:04;;;;;;;6.63;2.13;;;;;;;;;;4801249;29;20055;-65
2023/04/01 05:40:35;;;;;;;4.57;2.50;;;;;;;;;;4798428;29;20397;-65
2023/04/01 05:43:05;;;;;;;5.45;1.90;;;;;;;;;;4768626;30;20629;-65
2023/04/01 05:45:35;;;;;;;10.05;2.10;;;;;;;;;;4783701;30;20051;-65
2023/04/01 05:48:28;;;;;;;5.20;1.80;;;;;;;;;;4783436;30;20071;-65
2023/04/01 05:50:58;;;;;;;5.40;2.08;;;;;;;;;;4792789;29;20047;-65
2023/04/01 05:53:29;;;;;;;5.95;1.80;;;;;;;;;;4827538;29;20539;-65
2023/04/01 05:56:03;;;;;;;5.68;2.00;;;;;;;;;;4806702;29;20097;-65
2023/04/01 05:58:38;;;;;;;3.88;2.03;;;;;;;;;;4837858;29;20061;-65
2023/04/01 06:01:12;;;;;;;7.30;2.00;;;;;;;;;;4819908;29;20058;-65
2023/04/01 06:03:45;;;;;;;4.13;1.85;;;;;;;;;;4837584;29;20525;-65
2023/04/01 06:06:30;;;;;;;6.60;2.65;;;;;;;;;;4838109;29;20397;-65
2023/04/01 06:09:16;;;;;;;4.70;2.20;;;;;;;;;;4837839;29;20137;-65
2023/04/01 06:12:01;;;;;;;5.80;2.00;;;;;;;;;;4801514;29;20394;-65
2023/04/01 06:15:01;;;;;;;4.97;1.90;;;;;;;;;;4801822;29;20058;-65
2023/04/01 06:17:49;;;;;;;7.20;1.95;;;;;;;;;;4816253;29;20050;-65
2023/04/01 06:20:43;;;;;;;10.07;1.98;;;;;;;;;;4832203;29;20057;-63
2023/04/01 06:23:32;;;;;;;8.27;2.03;;;;;;;;;;4810457;29;20136;-63
2023/04/01 06:26:16;;;;;;;6.25;2.30;;;;;;;;;;4801351;29;20054;-63
2023/04/01 06:29:04;;;;;;;10.90;2.20;;;;;;;;;;4818159;29;20066;-66
2023/04/01 06:32:12;;;;;;;7.18;1.90;;;;;;;;;;4780512;29;20054;-65
2023/04/01 06:34:51;;;;;;;3.45;1.90;;;;;;;;;;4802488;29;20058;-65
2023/04/01 06:37:31;;;;;;;7.32;2.10;;;;;;;;;;4738683;30;20055;-66
2023/04/01 06:40:49;;;;;;;4.93;2.13;;;;;;;;;;4807844;29;20101;-66
2023/04/01 06:43:23;;;;;;;4.03;1.92;;;;;;;;;;4747765;30;20053;-65
2023/04/01 06:46:48;;;;;;;3.85;1.83;;;;;;;;;;4739388;30;20061;-66
2023/04/01 06:49:53;;;;;;;3.25;1.75;;;;;;;;;;4755365;30;20055;-65
2023/04/01 06:52:49;;;;;;;4.28;1.92;;;;;;;;;;4751339;30;20056;-65
2023/04/01 06:55:52;;;;;;;4.80;1.75;;;;;;;;;;4726591;30;20061;-66
2023/04/01 06:59:02;;;;;;;9.10;2.20;;;;;;;;;;4718344;30;20049;-65
2023/04/01 07:01:53;;;;;;;6.05;2.13;;;;;;;;;;4735905;30;20065;-65
2023/04/01 07:04:43;;;;;;;4.95;1.45;;;;;;;;;;4748351;30;20056;-65
2023/04/01 07:07:38;;;;;;;3.95;2.20;;;;;;;;;;4718838;30;20565;-65
2023/04/01 07:10:45;;;;;;;4.80;1.67;;;;;;;;;;4750371;30;20068;-66
2023/04/01 07:14:06;;;;;;;3.90;1.67;;;;;;;;;;4769057;30;20055;-66
2023/04/01 07:16:59;;;;;;;5.45;2.10;;;;;;;;;;4754778;30;20087;-65
2023/04/01 07:19:51;;;;;;;6.57;1.90;;;;;;;;;;4768594;30;20066;-66
2023/04/01 07:22:35;;;;;;;3.88;1.95;;;;;;;;;;4750471;30;20048;-66
2023/04/01 07:25:26;;;;;;;4.32;2.00;;;;;;;;;;4738346;30;20059;-65
2023/04/01 07:28:22;;;;;;;4.78;2.00;;;;;;;;;;4750453;30;20056;-65
2023/04/01 07:31:24;;;;;;;4.90;2.33;;;;;;;;;;4765385;30;20058;-65
2023/04/01 07:34:28;;;;;;;4.63;2.13;;;;;;;;;;4789137;29;20084;-65
2023/04/01 07:37:12;;;;;;;4.95;1.80;;;;;;;;;;4785953;30;20501;-65
2023/04/01 07:39:51;;;;;;;3.30;1.67;;;;;;;;;;4785729;30;20078;-65
2023/04/01 07:42:39;;;;;;;4.03;2.05;;;;;;;;;;4779232;30;20066;-65
2023/04/01 07:45:26;;;;;;;5.10;1.67;;;;;;;;;;4759545;30;20059;-65
2023/04/01 07:48:02;;;;;;;5.45;2.00;;;;;;;;;;4749716;30;20071;-65
2023/04/01 07:51:10;;;;;;;4.57;2.05;;;;;;;;;;4761806;30;20060;-66
2023/04/01 07:54:06;;;;;;;6.38;2.03;;;;;;;;;;4767885;30;20468;-65
2023/04/01 07:56:39;;;;;;;9.75;2.30;;;;;;;;;;4785243;30;20075;-65
2023/04/01 07:59:32;;;;;;;5.22;1.80;;;;;;;;;;4803613;29;20061;-64
2023/04/01 08:02:42;;;;;;;6.00;2.28;;;;;;;;;;4821672;29;20110;-65
2023/04/01 08:05:40;;;;;;;4.72;1.92;;;;;;;;;;4791431;29;20431;-65
2023/04/01 08:08:20;;;;;;;4.22;2.15;;;;;;;;;;4812428;29;20054;-65
2023/04/01 08:11:57;;;;;;;4.45;1.83;;;;;;;;;;4803431;29;20423;-65
2023/04/01 08:14:51;;;;;;;3.47;1.75;;;;;;;;;;4787930;29;20509;-65
2023/04/01 08:17:48;;;;;;;5.82;1.70;;;;;;;;;;4807597;29;20058;-66
2023/04/01 08:20:28;;;;;;;4.47;1.92;;;;;;;;;;4821094;29;20126;-65
2023/04/01 08:23:16;;;;;;;4.28;1.98;;;;;;;;;;4817696;29;20055;-65
2023/04/01 08:26:03;;;;;;;5.32;1.95;;;;;;;;;;4787364;29;20063;-65
2023/04/01 08:28:41;;;;;;;4.90;1.85;;;;;;;;;;4816391;29;20499;-65
2023/04/01 08:31:32;;;;;;;5.70;1.75;;;;;;;;;;4795890;29;20055;-65
2023/04/01 08:34:05;;;;;;;5.93;2.35;;;;;;;;;;4810078;29;20074;-65
2023/04/01 08:36:41;;;;;;;2.78;1.65;;;;;;;;;;4821156;29;20074;-65
2023/04/01 08:39:35;;;;;;;4.80;2.00;;;;;;;;;;4796418;29;20407;-65
2023/04/01 08:42:13;;;;;;;5.60;2.22;;;;;;;;;;4817728;29;20058;-66
2023/04/01 08:45:11;;;;;;;5.72;2.80;;;;;;;;;;4821931;29;20477;-65
2023/04/01 08:48:23;;;;;;;4.90;2.00;;;;;;;;;;4827942;29;20767;-65
2023/04/01 08:51:06;;;;;;;3.47;1.80;;;;;;;;;;4839069;29;20061;-65
2023/04/01 08:53:40;;;;;;;5.00;1.92;;;;;;;;;;4857193;29;20061;-65
2023/04/01 08:56:56;;;;;;;5.28;2.00;;;;;;;;;;4857149;29;20068;-65
2023/04/01 08:59:59;;;;;;;3.58;2.33;;;;;;;;;;4784371;30;20051;-65
2023/04/01 09:03:32;;;;;;;5.78;1.63;;;;;;;;;;4784725;29;20055;-65
2023/04/01 09:06:20;;;;;;;6.35;2.05;;;;;;;;;;4784693;30;20062;-65
2023/04/01 09:09:19;;;;;;;5.00;2.00;;;;;;;;;;4757814;30;20059;-65
2023/04/01 09:12:03;;;;;;;2.97;1.60;;;;;;;;;;4744260;30;20056;-65
2023/04/01 09:15:01;;;;;;;7.45;1.73;;;;;;;;;;4730971;30;20059;-65
2023/04/01 09:18:09;;;;;;;4.30;2.05;;;;;;;;;;4748384;30;20052;-65
2023/04/01 09:21:10;;;;;;;3.78;1.95;;;;;;;;;;4728408;30;20056;-64
2023/04/01 09:23:48;;;;;;;4.97;2.10;;;;;;;;;;4748365;30;20060;-65
2023/04/01 09:26:45;;;;;;;5.50;2.70;;;;;;;;;;4704943;30;20052;-65
2023/04/01 09:29:35;;;;;;;5.93;2.58;;;;;;;;;;4752578;30;20052;-65
2023/04/01 09:32:24;;;;;;;7.93;2.33;;;;;;;;;;4730253;30;20184;-64
2023/04/01 09:35:21;;;;;;;5.82;1.90;;;;;;;;;;4765900;30;20548;-64
2023/04/01 09:38:22;;;;;;;3.60;2.13;;;;;;;;;;4720001;30;20052;-65
2023/04/01 09:41:35;;;;;;;4.13;1.70;;;;;;;;;;4662324;30;20058;-65
2023/04/01 09:44:29;;;;;;;5.10;1.58;;;;;;;;;;4695458;30;20057;-65
2023/04/01 09:47:21;;;;;;;4.00;1.75;;;;;;;;;;4677826;30;20061;-64
2023/04/01 09:50:07;;;;;;;5.30;1.42;;;;;;;;;;4704378;30;20067;-65
2023/04/01 09:52:50;;;;;;;3.13;2.00;;;;;;;;;;4680926;30;20049;-65
2023/04/01 09:55:56;;;;;;;3.72;1.60;;;;;;;;;;4679687;30;20069;-65
2023/04/01 09:58:38;;;;;;;7.90;2.13;;;;;;;;;;4686746;30;20448;-65
2023/04/01 10:01:35;;;;;;;3.92;1.70;;;;;;;;;;4681912;30;20522;-64
2023/04/01 10:04:32;;;;;;;3.55;1.85;;;;;;;;;;4686495;30;20061;-65
2023/04/01 10:07:34;;;;;;;3.72;1.73;;;;;;;;;;4727002;30;20524;-65
2023/04/01 10:10:07;;;;;;;4.75;1.70;;;;;;;;;;4713052;30;20057;-65
2023/04/01 10:12:37;;;;;;;2.72;1.52;;;;;;;;;;4691195;30;20057;-64
2023/04/01 10:15:29;;;;;;;6.20;1.52;;;;;;;;;;4690327;30;20069;-64
2023/04/01 10:18:09;;;;;;;6.20;1.50;;;;;;;;;;4724091;30;20063;-64
2023/04/01 10:21:03;;;;;;;2.65;1.10;;;;;;;;;;4762460;30;20067;-64
2023/04/01 10:23:44;;;;;;;2.63;1.50;;;;;;;;;;4777930;29;20060;-65
2023/04/01 10:26:27;;;;;;;3.13;1.40;;;;;;;;;;4768826;30;20062;-64
2023/04/01 10:29:33;;;;;;;3.35;1.30;;;;;;;;;;4751435;30;20056;-65
2023/04/01 10:32:21;;;;;;;2.92;1.58;;;;;;;;;;4736718;30;20049;-65
2023/04/01 10:35:37;;;;;;;5.63;1.98;;;;;;;;;;4804561;29;20070;-64
2023/04/01 10:38:12;;;;;;;4.22;1.90;;;;;;;;;;4768710;30;20738;-64
2023/04/01 10:41:18;;;;;;;3.70;2.10;;;;;;;;;;4750460;30;20056;-65
2023/04/01 10:44:49;;;;;;;6.68;1.65;;;;;;;;;;4729427;30;20061;-65
2023/04/01 10:47:52;;;;;;;4.75;1.75;;;;;;;;;;4771663;30;20135;-65
2023/04/01 10:50:43;;;;;;;4.57;1.90;;;;;;;;;;4733444;30;20053;-65
2023/04/01 10:53:28;;;;;;;2.63;1.35;;;;;;;;;;4715818;30;20075;-65
2023/04/01 10:56:57;;;;;;;2.92;1.20;;;;;;;;;;4729063;30;20756;-65
2023/04/01 11:00:00;;;;;;;3.90;1.90;;;;;;;;;;4715258;30;20061;-64
2023/04/01 11:03:09;;;;;;;3.05;1.55;;;;;;;;;;4706561;30;20056;-64
2023/04/01 11:06:32;;;;;;;3.03;1.58;;;;;;;;;;4661277;30;20433;-65
2023/04/01 11:09:44;;;;;;;4.75;1.52;;;;;;;;;;4646905;30;20058;-65
2023/04/01 11:13:00;;;;;;;5.45;1.40;;;;;;;;;;4663993;30;20066;-65
2023/04/01 11:15:52;;;;;;;8.32;1.50;;;;;;;;;;4689334;30;20061;-65
2023/04/01 11:19:25;;;;;;;3.55;1.27;;;;;;;;;;4714941;30;20056;-65
2023/04/01 11:22:15;;;;;;;3.55;1.42;;;;;;;;;;4651787;30;20153;-65
2023/04/01 11:25:25;;;;;;;2.88;1.35;;;;;;;;;;4674295;30;20062;-65
2023/04/01 11:28:56;;;;;;;5.35;1.30;;;;;;;;;;4697839;30;20061;-65
2023/04/01 11:31:46;;;;;;;3.35;1.25;;;;;;;;;;4720385;30;20061;-65
2023/04/01 11:34:39;;;;;;;8.18;1.05;;;;;;;;;;4714910;30;20068;-65
2023/04/01 11:37:34;;;;;;;2.65;1.02;;;;;;;;;;4714947;30;20466;-65
2023/04/01 11:40:38;;;;;;;3.95;0.80;;;;;;;;;;4715822;30;20065;-65
2023/04/01 11:43:59;;;;;;;1.73;0.82;;;;;;;;;;4724108;30;20061;-65
2023/04/01 11:47:07;;;;;;;2.83;1.08;;;;;;;;;;4725089;30;20057;-64
2023/04/01 11:49:40;;;;;;;2.38;0.80;;;;;;;;;;4700371;30;20714;-65
2023/04/01 11:52:37;;;;;;;8.07;1.50;;;;;;;;;;4724795;30;20644;-65
2023/04/01 11:55:32;;;;;;;3.40;1.20;;;;;;;;;;4738561;30;20065;-65
2023/04/01 11:58:21;;;;;;;6.45;1.10;;;;;;;;;;4785772;30;20521;-65
2023/04/01 12:01:12;;;;;;;4.47;1.30;;;;;;;;;;4801624;29;20071;-64
2023/04/01 12:04:15;;;;;;;7.05;0.95;;;;;;;;;;4803496;29;20046;-65
2023/04/01 12:07:25;;;;;;;7.20;1.25;;;;;;;;;;4742290;30;20452;-64
2023/04/01 12:10:03;;;;;;;6.47;1.35;;;;;;;;;;4785903;30;20144;-65
2023/04/01 12:12:57;;;;;;;4.03;1.20;;;;;;;;;;4815575;29;20085;-64
2023/04/01 12:15:38;;;;;;;2.95;1.20;;;;;;;;;;4868196;29;20536;-65
2023/04/01 12:18:36;;;;;;;4.13;1.05;;;;;;;;;;4891084;29;20566;-65
2023/04/01 12:21:26;;;;;;;2.58;1.10;;;;;;;;;;4933369;29;20064;-65
2023/04/01 12:24:33;;;;;;;5.25;1.20;;;;;;;;;;4933247;29;20062;-65
2023/04/01 12:27:21;;;;;;;6.97;0.93;;;;;;;;;;4918371;29;20517;-65
2023/04/01 12:30:06;;;;;;;4.85;1.27;;;;;;;;;;4905664;29;20057;-66
2023/04/01 12:32:54;;;;;;;6.35;3.00;;;;;;;;;;4895130;29;20053;-65
2023/04/01 12:35:45;;;;;;;4.22;1.60;;;;;;;;;;4848996;29;20061;-65
2023/04/01 12:38:42;;;;;;;4.53;1.65;;;;;;;;;;4894406;29;20412;-65
2023/04/01 12:41:48;;;;;;;4.43;1.15;;;;;;;;;;4848221;29;20452;-64
2023/04/01 12:44:36;;;;;;;3.55;1.00;;;;;;;;;;4895143;29;20497;-64
2023/04/01 12:47:30;;;;;;;3.83;1.60;;;;;;;;;;4894841;29;20431;-65
2023/04/01 12:50:27;;;;;;;4.38;1.17;;;;;;;;;;4864150;29;20049;-64
2023/04/01 12:53:36;;;;;;;3.33;0.88;;;;;;;;;;4833455;29;20513;-65
2023/04/01 12:56:38;;;;;;;5.78;2.67;;;;;;;;;;4879324;29;20524;-64
2023/04/01 12:59:27;;;;;;;2.95;1.00;;;;;;;;;;4873699;29;20064;-66
2023/04/01 13:02:14;;;;;;;7.35;1.95;;;;;;;;;;4876021;29;20048;-65
2023/04/01 13:05:19;;;;;;;7.72;1.67;;;;;;;;;;4875835;29;20053;-65
2023/04/01 13:08:16;;;;;;;2.83;1.10;;;;;;;;;;4875855;29;20064;-63
2023/04/01 13:11:13;;;;;;;2.83;1.02;;;;;;;;;;4876261;29;20092;-65
2023/04/01 13:13:52;;;;;;;3.50;0.77;;;;;;;;;;4876159;29;20057;-64
2023/04/01 13:16:40;;;;;;;4.68;1.42;;;;;;;;;;4875824;29;20421;-64
2023/04/01 13:19:39;;;;;;;5.13;1.10;;;;;;;;;;4936552;29;20052;-64
2023/04/01 13:22:28;;;;;;;3.80;1.27;;;;;;;;;;4890356;29;20455;-65
2023/04/01 13:25:15;;;;;;;2.88;0.80;;;;;;;;;;4919425;29;20051;-65
2023/04/01 13:27:51;;;;;;;8.10;1.05;;;;;;;;;;4935171;29;20059;-65
2023/04/01 13:30:47;;;;;;;3.63;1.08;;;;;;;;;;4951407;29;20059;-65
2023/04/01 13:33:29;;;;;;;5.65;0.98;;;;;;;;;;4950987;29;20074;-65
2023/04/01 13:36:16;;;;;;;7.70;1.40;;;;;;;;;;4969351;28;20065;-65
2023/04/01 13:38:57;;;;;;;4.80;1.10;;;;;;;;;;4996347;28;20072;-65
2023/04/01 13:41:35;;;;;;;5.60;1.20;;;;;;;;;;5012946;28;20050;-65
2023/04/01 13:44:19;;;;;;;3.88;1.15;;;;;;;;;;5031639;28;20052;-64
2023/04/01 13:47:09;;;;;;;4.68;1.20;;;;;;;;;;5031433;28;20056;-65
2023/04/01 13:49:47;;;;;;;5.68;0.98;;;;;;;;;;4980675;28;20054;-65
2023/04/01 13:52:47;;;;;;;4.82;0.93;;;;;;;;;;4981908;28;20061;-65
2023/04/01 13:55:31;;;;;;;4.55;1.00;;;;;;;;;;4997347;28;20053;-65
2023/04/01 13:58:19;;;;;;;3.85;0.90;;;;;;;;;;4947436;28;20057;-65
2023/04/01 14:01:13;;;;;;;3.28;0.90;;;;;;;;;;4996756;28;20064;-65
2023/04/01 14:03:52;;;;;;;6.78;1.05;;;;;;;;;;5031463;28;20053;-65
2023/04/01 14:06:37;;;;;;;3.80;0.82;;;;;;;;;;5013175;28;20057;-65
2023/04/01 14:09:26;;;;;;;5.85;1.15;;;;;;;;;;5031481;28;20045;-65
2023/04/01 14:12:09;;;;;;;5.25;0.90;;;;;;;;;;5031161;28;20046;-65
2023/04/01 14:15:11;;;;;;;3.47;0.90;;;;;;;;;;5031584;28;20509;-65
2023/04/01 14:18:02;;;;;;;4.70;1.00;;;;;;;;;;5029039;28;20080;-65
2023/04/01 14:21:04;;;;;;;4.13;0.93;;;;;;;;;;5031254;28;20060;-65
2023/04/01 14:24:19;;;;;;;5.30;1.05;;;;;;;;;;4938936;28;20062;-65
2023/04/01 14:27:07;;;;;;;3.08;0.90;;;;;;;;;;4956581;28;20067;-65
2023/04/01 14:30:18;;;;;;;7.60;1.00;;;;;;;;;;4919015;29;20766;-65
2023/04/01 14:33:01;;;;;;;4.95;1.00;;;;;;;;;;4912751;29;20059;-65
2023/04/01 14:35:41;;;;;;;5.28;0.98;;;;;;;;;;4867799;29;20064;-65
2023/04/01 14:38:29;;;;;;;2.47;0.70;;;;;;;;;;4882103;29;20532;-65
2023/04/01 14:41:19;;;;;;;4.25;1.10;;;;;;;;;;4896731;29;20063;-65
2023/04/01 14:44:16;;;;;;;2.53;1.20;;;;;;;;;;4881185;29;20063;-65
2023/04/01 14:47:42;;;;;;;3.78;1.00;;;;;;;;;;4896717;29;20056;-65
2023/04/01 14:50:22;;;;;;;3.10;0.73;;;;;;;;;;4859631;29;20437;-65
2023/04/01 14:53:18;;;;;;;3.47;0.82;;;;;;;;;;4875219;29;20049;-65
2023/04/01 14:56:00;;;;;;;4.63;1.33;;;;;;;;;;4837987;29;20054;-65
2023/04/01 14:58:50;;;;;;;2.78;0.77;;;;;;;;;;4838105;29;20167;-66
2023/04/01 15:01:42;;;;;;;3.42;1.10;;;;;;;;;;4851831;29;20061;-65
2023/04/01 15:04:15;;;;;;;4.50;1.45;;;;;;;;;;4841124;29;20518;-63
2023/04/01 15:06:56;;;;;;;2.92;0.88;;;;;;;;;;4840725;29;20062;-65
2023/04/01 15:09:48;;;;;;;5.03;1.50;;;;;;;;;;4872581;29;20061;-66
2023/04/01 15:12:21;;;;;;;4.50;1.10;;;;;;;;;;4888644;29;20437;-65
2023/04/01 15:15:25;;;;;;;3.95;0.80;;;;;;;;;;4912447;29;20045;-63
2023/04/01 15:18:17;;;;;;;5.30;0.77;;;;;;;;;;4897086;29;20501;-65
2023/04/01 15:21:12;;;;;;;2.72;0.90;;;;;;;;;;4915854;29;20067;-65
2023/04/01 15:24:07;;;;;;;2.55;0.63;;;;;;;;;;4934682;29;20187;-65
2023/04/01 15:27:08;;;;;;;4.10;0.98;;;;;;;;;;4945894;29;20055;-65
2023/04/01 15:30:27;;;;;;;3.78;0.88;;;;;;;;;;4940932;29;20554;-65
2023/04/01 15:33:22;;;;;;;3.75;0.73;;;;;;;;;;4937086;29;20055;-65
2023/04/01 15:36:09;;;;;;;2.60;0.70;;;;;;;;;;4905871;29;20063;-65
2023/04/01 15:38:52;;;;;;;1.33;0.52;;;;;;;;;;4921500;29;20129;-65
2023/04/01 15:41:35;;;;;;;1.50;1.10;;;;;;;;;;4953568;29;20415;-64
2023/04/01 15:44:31;;;;;;;4.40;1.10;;;;;;;;;;4953263;29;20059;-65
2023/04/01 15:47:13;;;;;;;4.25;0.77;;;;;;;;;;4921425;29;20547;-64
2023/04/01 15:49:51;;;;;;;1.80;0.70;;;;;;;;;;4953332;29;20559;-65
2023/04/01 15:52:42;;;;;;;2.28;0.65;;;;;;;;;;4936972;29;20059;-64
2023/04/01 15:55:33;;;;;;;2.90;0.77;;;;;;;;;;4905380;29;20058;-64
2023/04/01 15:58:40;;;;;;;2.83;0.82;;;;;;;;;;4936664;29;20059;-64
2023/04/01 16:01:27;;;;;;;2.45;0.82;;;;;;;;;;4953409;29;20147;-64
2023/04/01 16:04:12;;;;;;;4.43;1.00;;;;;;;;;;4952795;29;20055;-64
2023/04/01 16:07:21;;;;;;;3.70;0.80;;;;;;;;;;4937051;29;20059;-65
2023/04/01 16:10:05;;;;;;;5.07;1.10;;;;;;;;;;4971320;28;20049;-64
2023/04/01 16:12:47;;;;;;;4.00;1.00;;;;;;;;;;5033425;28;20049;-65
2023/04/01 16:15:17;;;;;;;3.40;0.85;;;;;;;;;;5033315;28;20056;-64
2023/04/01 16:18:19;;;;;;;2.08;0.70;;;;;;;;;;5014556;28;20053;-64
2023/04/01 16:20:57;;;;;;;3.35;1.23;;;;;;;;;;4997535;28;20398;-64
2023/04/01 16:23:42;;;;;;;3.05;0.65;;;;;;;;;;5032928;28;20045;-64
2023/04/01 16:26:50;;;;;;;2.55;0.70;;;;;;;;;;5010340;28;20061;-64
2023/04/01 16:29:25;;;;;;;1.38;0.88;;;;;;;;;;5011238;28;20506;-65
2023/04/01 16:32:16;;;;;;;3.25;0.90;;;;;;;;;;4978765;28;20061;-64
2023/04/01 16:35:13;;;;;;;1.23;0.50;;;;;;;;;;4994553;28;20062;-64